26.99C
небольшая облачность
небольшая облачность
Дата и времяТемператураДавление, мм рт.ст.Влажность, %Осадки
МинимумМаксимум
16.08.2022 23:0024.1C26.99C76543небольшая облачность
17.08.2022 02:0022.82C25.6C76547переменная облачность
17.08.2022 05:0020.17C22.44C76557переменная облачность
17.08.2022 08:0019.12C19.12C76564переменная облачность
17.08.2022 11:0023.53C23.53C76545переменная облачность
17.08.2022 14:0027.6C27.6C76433облачно с прояснениями
17.08.2022 17:0028.9C28.9C76330облачно с прояснениями
17.08.2022 20:0027.59C27.59C76334пасмурно
17.08.2022 23:0023.72C23.72C76347пасмурно
18.08.2022 02:0021.59C21.59C76351облачно с прояснениями
18.08.2022 05:0019.88C19.88C76456облачно с прояснениями
18.08.2022 08:0019.18C19.18C76459ясно
18.08.2022 11:0023.11C23.11C76541небольшая облачность
18.08.2022 14:0026.46C26.46C76433облачно с прояснениями
18.08.2022 17:0025.68C25.68C76435облачно с прояснениями
18.08.2022 20:0024.48C24.48C76440пасмурно
18.08.2022 23:0022.37C22.37C76546облачно с прояснениями
19.08.2022 02:0020.24C20.24C76553переменная облачность
19.08.2022 05:0018.55C18.55C76662переменная облачность
19.08.2022 08:0019.52C19.52C76662пасмурно
19.08.2022 11:0019.34C19.34C76771пасмурно
19.08.2022 14:0019.84C19.84C76866пасмурно
19.08.2022 17:0017.61C17.61C76871небольшой дождь
19.08.2022 20:0017.87C17.87C76865пасмурно
19.08.2022 23:0018.08C18.08C76856пасмурно
20.08.2022 02:0017.92C17.92C76845пасмурно
20.08.2022 05:0018.5C18.5C76740пасмурно
20.08.2022 08:0018.67C18.67C76745пасмурно
20.08.2022 11:0020.02C20.02C76748пасмурно
20.08.2022 14:0025.3C25.3C76636пасмурно
20.08.2022 17:0029.89C29.89C76527пасмурно
20.08.2022 20:0026.24C26.24C76636пасмурно
20.08.2022 23:0023.58C23.58C76733пасмурно
21.08.2022 02:0022.59C22.59C76634пасмурно
21.08.2022 05:0021.33C21.33C76734пасмурно
21.08.2022 08:0020.75C20.75C76737пасмурно
21.08.2022 11:0020.82C20.82C76736пасмурно
21.08.2022 14:0022.96C22.96C76631пасмурно
21.08.2022 17:0025.84C25.84C76525пасмурно
21.08.2022 20:0024.82C24.82C76530пасмурно
Дата и время наблюдения: 16.08.2022 21:32:07